Time;durP1;ratioP1;P1;durP2;ratioP2;P2;SDS_P1;SDS_P2;PMS_P1;PMS_P2;Temp;Humidity;BMP_temperature;BMP_pressure;BME280_temperature;BME280_humidity;BME280_pressure;Samples;Min_cycle;Max_cycle;Signal;HPM_P1;HPM_P2
2023/09/06 00:00:49;;;;;;;5.03;4.63;;;12.50;99.90;;;;;;4991020;28;20023;-58
2023/09/06 00:03:15;;;;;;;4.75;4.25;;;12.40;99.90;;;;;;5004595;28;20026;-58
2023/09/06 00:05:41;;;;;;;4.60;4.07;;;12.30;99.90;;;;;;4985277;28;20121;-58
2023/09/06 00:08:16;;;;;;;3.60;3.17;;;12.30;99.90;;;;;;4983167;28;20027;-57
2023/09/06 00:10:43;;;;;;;2.45;2.15;;;12.30;99.90;;;;;;4992931;28;20034;-59
2023/09/06 00:13:11;;;;;;;1.95;1.80;;;12.20;99.90;;;;;;4981687;28;20062;-58
2023/09/06 00:15:36;;;;;;;1.98;1.88;;;12.10;99.90;;;;;;4985225;28;20496;-60
2023/09/06 00:18:05;;;;;;;1.95;1.70;;;12.00;99.90;;;;;;4985008;28;20126;-60
2023/09/06 00:20:34;;;;;;;1.63;1.52;;;11.90;99.90;;;;;;4986816;28;20029;-57
2023/09/06 00:23:04;;;;;;;1.77;1.67;;;11.80;99.90;;;;;;4986725;28;20057;-59
2023/09/06 00:25:31;;;;;;;1999.90;999.90;;;11.80;99.90;;;;;;4988445;28;20506;-60
2023/09/06 00:27:59;;;;;;;1999.90;999.90;;;11.90;99.90;;;;;;4988883;28;20030;-60
2023/09/06 00:30:25;;;;;;;1999.90;999.90;;;11.80;99.90;;;;;;4983607;28;20126;-59
2023/09/06 00:32:52;;;;;;;2.13;1.33;;;11.80;99.90;;;;;;4984023;28;20106;-57
2023/09/06 00:35:24;;;;;;;0.80;0.80;;;11.80;99.90;;;;;;4992231;28;20042;-60
2023/09/06 00:37:50;;;;;;;3.28;3.08;;;11.80;99.90;;;;;;4990279;28;20117;-59
2023/09/06 00:40:18;;;;;;;3.67;3.38;;;11.80;99.90;;;;;;4984696;28;20113;-58
2023/09/06 00:42:59;;;;;;;3.10;2.78;;;11.80;99.90;;;;;;4993045;28;20034;-59
2023/09/06 00:45:29;;;;;;;3.25;2.95;;;11.80;99.90;;;;;;4985795;28;20061;-58
2023/09/06 00:47:56;;;;;;;3.95;3.42;;;11.80;99.90;;;;;;4991169;28;20549;-55
2023/09/06 00:50:22;;;;;;;3.65;3.15;;;11.80;99.90;;;;;;4990336;28;20038;-57
2023/09/06 00:52:50;;;;;;;3.75;3.45;;;11.80;99.90;;;;;;4988280;28;20248;-55
2023/09/06 00:55:17;;;;;;;3.45;3.00;;;11.80;99.90;;;;;;4983352;28;20445;-56
2023/09/06 00:57:43;;;;;;;3.50;3.10;;;11.80;99.90;;;;;;4998922;28;20022;-57
2023/09/06 01:00:19;;;;;;;3.40;3.10;;;11.80;99.90;;;;;;4995898;28;20026;-57
2023/09/06 01:02:47;;;;;;;5.25;3.88;;;11.80;99.90;;;;;;4991896;28;20045;-58
2023/09/06 01:05:13;;;;;;;30.42;8.18;;;11.70;99.90;;;;;;4984539;28;20042;-58
2023/09/06 01:07:40;;;;;;;1.08;0.98;;;11.80;99.90;;;;;;4985834;28;20033;-58
2023/09/06 01:10:07;;;;;;;1.77;1.27;;;11.80;99.90;;;;;;4986387;28;20511;-56
2023/09/06 01:12:34;;;;;;;1.40;0.93;;;11.80;99.90;;;;;;4980580;28;20506;-55
2023/09/06 01:15:00;;;;;;;2.13;1.13;;;11.80;99.90;;;;;;4988801;28;20036;-57
2023/09/06 01:17:27;;;;;;;1.65;1.25;;;11.80;99.90;;;;;;4992458;28;20040;-60
2023/09/06 01:20:19;;;;;;;1.40;1.10;;;11.80;99.90;;;;;;4993191;28;20084;-58
2023/09/06 01:23:20;;;;;;;1.90;1.20;;;11.70;99.90;;;;;;4990603;28;20042;-57
2023/09/06 01:25:46;;;;;;;3.40;1.38;;;11.70;99.90;;;;;;4992785;28;20038;-57
2023/09/06 01:28:12;;;;;;;1.02;0.95;;;11.70;99.90;;;;;;4994686;28;20030;-56
2023/09/06 01:30:38;;;;;;;1.95;1.23;;;11.60;99.90;;;;;;4991188;28;20170;-56
2023/09/06 01:33:03;;;;;;;0.60;0.60;;;11.60;99.90;;;;;;4990281;28;20014;-56
2023/09/06 01:35:29;;;;;;;7.28;1.33;;;11.50;99.90;;;;;;4991718;28;20514;-55
2023/09/06 01:37:56;;;;;;;1.23;1.10;;;11.40;99.90;;;;;;4986802;28;20376;-56
2023/09/06 01:40:26;;;;;;;2.78;1.20;;;11.20;99.90;;;;;;4991198;28;20065;-57
2023/09/06 01:42:52;;;;;;;0.90;0.90;;;11.10;99.90;;;;;;5004408;28;20088;-56
2023/09/06 01:45:18;;;;;;;1.52;0.90;;;11.10;99.90;;;;;;4987183;28;20036;-55
2023/09/06 01:47:48;;;;;;;1.15;0.88;;;11.00;99.90;;;;;;4994770;28;20019;-59
2023/09/06 01:50:19;;;;;;;1.75;1.02;;;11.00;99.90;;;;;;4980510;28;20041;-59
2023/09/06 01:52:44;;;;;;;1.13;1.02;;;11.00;99.90;;;;;;4991512;28;20588;-61
2023/09/06 01:55:10;;;;;;;0.98;0.88;;;11.00;99.90;;;;;;4994975;28;20037;-60
2023/09/06 01:57:36;;;;;;;1.10;1.00;;;10.90;99.90;;;;;;4992887;28;20486;-60
2023/09/06 02:00:16;;;;;;;0.50;0.50;;;10.90;99.90;;;;;;4990077;28;20031;-58
2023/09/06 02:02:41;;;;;;;0.75;0.70;;;10.90;99.90;;;;;;4992939;28;20045;-60
2023/09/06 02:05:07;;;;;;;1.60;1.10;;;10.80;99.90;;;;;;4990940;28;20525;-60
2023/09/06 02:07:33;;;;;;;1.45;1.00;;;10.80;99.90;;;;;;4993061;28;20065;-59
2023/09/06 02:09:58;;;;;;;1.48;1.00;;;10.80;99.90;;;;;;4989408;28;20042;-58
2023/09/06 02:12:24;;;;;;;1.77;1.00;;;10.80;99.90;;;;;;4990307;28;20057;-59
2023/09/06 02:14:52;;;;;;;1.48;1.30;;;10.90;99.90;;;;;;4989595;28;20451;-59
2023/09/06 02:17:20;;;;;;;1.67;1.23;;;10.90;99.90;;;;;;4984176;28;20149;-58
2023/09/06 02:19:45;;;;;;;4.55;1.38;;;10.90;99.90;;;;;;4983752;28;20026;-60
2023/09/06 02:22:11;;;;;;;2.45;1.95;;;10.90;99.90;;;;;;4981374;28;20053;-62
2023/09/06 02:24:39;;;;;;;2.35;1.58;;;11.00;99.90;;;;;;4980521;28;20058;-60
2023/09/06 02:27:05;;;;;;;2.45;1.30;;;11.00;99.90;;;;;;4980193;28;20023;-60
2023/09/06 02:29:31;;;;;;;1.67;1.13;;;11.00;99.90;;;;;;4990121;28;20032;-61
2023/09/06 02:31:57;;;;;;;2.08;1.48;;;10.90;99.90;;;;;;4989198;28;20082;-61
2023/09/06 02:34:22;;;;;;;1.35;1.25;;;10.90;99.90;;;;;;4980918;28;20035;-60
2023/09/06 02:36:48;;;;;;;2.65;0.93;;;11.00;99.90;;;;;;4983749;28;20026;-61
2023/09/06 02:39:14;;;;;;;3.60;1.50;;;11.00;99.90;;;;;;4989473;28;20165;-61
2023/09/06 02:41:39;;;;;;;1.30;1.00;;;11.00;99.90;;;;;;4993070;28;20073;-60
2023/09/06 02:44:05;;;;;;;319.90;46.42;;;11.00;99.90;;;;;;4993395;28;20458;-58
2023/09/06 02:46:33;;;;;;;370.17;70.68;;;11.00;99.90;;;;;;4985337;28;20066;-62
2023/09/06 02:49:11;;;;;;;657.00;303.75;;;11.00;99.90;;;;;;4998379;28;20126;-60
2023/09/06 02:51:42;;;;;;;1999.90;999.90;;;11.10;99.90;;;;;;4988527;28;20509;-60
2023/09/06 02:54:09;;;;;;;1999.90;999.90;;;11.10;99.90;;;;;;4995240;28;20027;-61
2023/09/06 02:56:37;;;;;;;1999.90;999.90;;;11.00;99.90;;;;;;4981995;28;20037;-61
2023/09/06 02:59:03;;;;;;;11.02;10.52;;;11.00;99.90;;;;;;4989058;28;20099;-60
2023/09/06 03:01:30;;;;;;;1078.80;536.30;;;11.00;99.90;;;;;;4984179;28;20084;-61
2023/09/06 03:03:57;;;;;;;5.45;4.95;;;11.00;99.90;;;;;;4992163;28;20045;-60
2023/09/06 03:06:32;;;;;;;140.90;41.33;;;10.90;99.90;;;;;;4997206;28;20026;-61
2023/09/06 03:08:59;;;;;;;1999.90;999.90;;;10.90;99.90;;;;;;4984934;28;20592;-59
2023/09/06 03:11:25;;;;;;;349.17;59.17;;;10.80;99.90;;;;;;4983764;28;20034;-60
2023/09/06 03:13:55;;;;;;;1.85;1.60;;;10.80;99.90;;;;;;4984090;28;20034;-60
2023/09/06 03:16:24;;;;;;;1999.90;999.90;;;10.80;99.90;;;;;;4994176;28;20042;-59
2023/09/06 03:18:51;;;;;;;1999.90;999.90;;;10.80;99.90;;;;;;4995329;28;20166;-61
2023/09/06 03:21:17;;;;;;;1999.90;999.90;;;10.70;99.90;;;;;;4993486;28;20021;-59
2023/09/06 03:23:46;;;;;;;25.48;23.92;;;10.70;99.90;;;;;;4992438;28;20366;-61
2023/09/06 03:26:12;;;;;;;5.85;5.35;;;10.70;99.90;;;;;;5001122;28;20037;-59
2023/09/06 03:28:41;;;;;;;4.55;4.07;;;10.60;99.90;;;;;;4992048;28;20047;-60
2023/09/06 03:31:12;;;;;;;5.22;4.30;;;10.60;99.90;;;;;;4991959;28;20053;-58
2023/09/06 03:33:41;;;;;;;5.28;4.18;;;10.60;99.90;;;;;;4989456;28;20031;-60
2023/09/06 03:36:09;;;;;;;3.95;3.55;;;10.60;99.90;;;;;;4988620;28;20030;-59
2023/09/06 03:38:36;;;;;;;4.03;3.45;;;10.60;99.90;;;;;;4984951;28;20038;-60
2023/09/06 03:41:07;;;;;;;4.82;3.58;;;10.60;99.90;;;;;;4983908;28;20369;-61
2023/09/06 03:43:33;;;;;;;4.35;3.80;;;10.60;99.90;;;;;;4991737;28;20104;-57
2023/09/06 03:46:04;;;;;;;3.92;3.53;;;10.60;99.90;;;;;;4986692;28;20035;-58
2023/09/06 03:48:30;;;;;;;4.40;3.30;;;10.50;99.90;;;;;;4986114;28;20045;-61
2023/09/06 03:50:57;;;;;;;3.47;2.80;;;10.50;99.90;;;;;;4988401;28;20048;-58
2023/09/06 03:53:27;;;;;;;3.30;2.63;;;10.40;99.90;;;;;;4983893;28;20046;-60
2023/09/06 03:55:56;;;;;;;6.03;3.30;;;10.40;99.90;;;;;;4983782;28;20109;-59
2023/09/06 03:58:23;;;;;;;3.63;3.13;;;10.30;99.90;;;;;;4985751;28;20561;-60
2023/09/06 04:00:49;;;;;;;3.50;2.85;;;10.30;99.90;;;;;;4984018;28;20038;-60
2023/09/06 04:03:15;;;;;;;6.43;2.90;;;10.20;99.90;;;;;;4991072;28;20075;-59
2023/09/06 04:05:40;;;;;;;3.83;3.20;;;10.10;99.90;;;;;;4995043;28;20026;-60
2023/09/06 04:08:07;;;;;;;2.53;2.28;;;10.10;99.90;;;;;;4991334;28;20266;-60
2023/09/06 04:10:36;;;;;;;3.00;1.92;;;10.10;99.90;;;;;;4991758;28;20027;-60
2023/09/06 04:13:13;;;;;;;2.60;2.05;;;10.10;99.90;;;;;;4991625;28;20061;-59
2023/09/06 04:15:40;;;;;;;3.42;2.50;;;10.00;99.90;;;;;;4984315;28;20054;-57
2023/09/06 04:18:07;;;;;;;5.15;3.03;;;10.00;99.90;;;;;;4987794;28;20033;-60
2023/09/06 04:20:37;;;;;;;5.13;2.90;;;10.00;99.90;;;;;;4990154;28;20050;-60
2023/09/06 04:23:07;;;;;;;3.95;3.28;;;10.00;99.90;;;;;;4990391;28;20135;-60
2023/09/06 04:25:41;;;;;;;6.53;3.38;;;10.10;99.90;;;;;;4990858;28;20490;-61
2023/09/06 04:28:07;;;;;;;3.95;2.95;;;10.10;99.90;;;;;;4987763;28;20486;-60
2023/09/06 04:30:36;;;;;;;4.07;3.17;;;10.10;99.90;;;;;;4988172;28;20029;-60
2023/09/06 04:33:05;;;;;;;3.85;3.20;;;10.10;99.90;;;;;;4989909;28;20022;-59
2023/09/06 04:35:38;;;;;;;3.20;2.55;;;10.00;99.90;;;;;;4985202;28;20026;-61
2023/09/06 04:38:03;;;;;;;2.88;2.33;;;10.00;99.90;;;;;;4981940;28;20034;-61
2023/09/06 04:40:29;;;;;;;4.38;2.70;;;9.90;99.90;;;;;;4988050;28;20030;-58
2023/09/06 04:42:56;;;;;;;3.63;3.17;;;9.80;99.90;;;;;;4987307;28;20045;-60
2023/09/06 04:45:21;;;;;;;3.50;2.78;;;9.90;99.90;;;;;;4990805;28;20037;-60
2023/09/06 04:47:47;;;;;;;4.28;3.10;;;9.80;99.90;;;;;;4985097;28;20106;-61
2023/09/06 04:50:13;;;;;;;4.10;3.15;;;9.80;99.90;;;;;;4985334;28;20429;-60
2023/09/06 04:52:46;;;;;;;2.45;2.25;;;9.80;99.90;;;;;;4985765;28;20026;-61
2023/09/06 04:55:13;;;;;;;3.88;1.85;;;9.70;99.90;;;;;;4984289;28;20030;-60
2023/09/06 04:57:42;;;;;;;2.50;2.00;;;9.60;99.90;;;;;;4985980;28;20046;-60
2023/09/06 05:00:24;;;;;;;2.10;1.75;;;9.60;99.90;;;;;;4993597;28;20076;-58
2023/09/06 05:02:53;;;;;;;2.70;2.42;;;9.60;99.90;;;;;;4989703;28;20045;-60
2023/09/06 05:05:20;;;;;;;3.33;1.98;;;9.60;99.90;;;;;;4986093;28;20089;-59
2023/09/06 05:07:46;;;;;;;2.13;1.92;;;9.60;99.90;;;;;;4996138;28;20398;-61
2023/09/06 05:10:11;;;;;;;2.47;2.10;;;9.70;99.90;;;;;;4994793;28;20030;-59
2023/09/06 05:12:38;;;;;;;2.50;2.30;;;9.70;99.90;;;;;;4987402;28;20056;-61
2023/09/06 05:15:05;;;;;;;3.47;2.92;;;9.70;99.90;;;;;;4986067;28;20031;-58
2023/09/06 05:17:32;;;;;;;3.20;2.90;;;9.80;99.90;;;;;;4981444;28;20054;-61
2023/09/06 05:20:27;;;;;;;4.07;3.67;;;9.90;99.90;;;;;;4985555;28;20034;-58
2023/09/06 05:22:59;;;;;;;5.15;3.75;;;10.00;99.90;;;;;;4985465;28;20502;-58
2023/09/06 05:25:25;;;;;;;6.47;3.55;;;10.10;99.90;;;;;;4984073;28;20038;-57
2023/09/06 05:27:53;;;;;;;4.90;3.88;;;10.10;99.90;;;;;;4982607;28;20050;-59
2023/09/06 05:30:19;;;;;;;3.25;2.95;;;10.20;99.90;;;;;;4985891;28;20494;-58
2023/09/06 05:32:45;;;;;;;3.72;3.42;;;10.20;99.90;;;;;;4980366;28;20030;-58
2023/09/06 05:35:11;;;;;;;4.03;3.58;;;10.30;99.90;;;;;;4991534;28;20030;-57
2023/09/06 05:37:38;;;;;;;4.03;3.50;;;10.40;99.90;;;;;;4989940;28;20490;-57
2023/09/06 05:40:04;;;;;;;4.75;4.20;;;10.40;99.90;;;;;;4989318;28;20039;-59
2023/09/06 05:42:30;;;;;;;4.70;4.30;;;10.50;99.90;;;;;;4989728;28;20034;-58
2023/09/06 05:44:56;;;;;;;4.40;4.00;;;10.50;99.90;;;;;;4993508;28;20015;-57
2023/09/06 05:47:22;;;;;;;4.22;3.58;;;10.60;99.90;;;;;;4993577;28;21015;-56
2023/09/06 05:49:51;;;;;;;5.18;3.67;;;10.60;99.90;;;;;;4994292;28;20046;-59
2023/09/06 05:52:17;;;;;;;3.58;3.28;;;10.70;99.90;;;;;;5000910;28;20033;-58
2023/09/06 05:54:43;;;;;;;5.50;4.20;;;10.80;99.90;;;;;;4994770;28;20038;-56
2023/09/06 05:57:09;;;;;;;3.90;3.60;;;10.90;99.90;;;;;;4997311;28;20038;-58
2023/09/06 05:59:36;;;;;;;4.57;4.20;;;10.90;99.90;;;;;;4996623;28;20037;-59
2023/09/06 06:02:02;;;;;;;3.78;3.47;;;11.00;99.90;;;;;;4994058;28;20395;-57
2023/09/06 06:04:28;;;;;;;4.43;4.03;;;11.10;99.90;;;;;;4990288;28;20038;-58
2023/09/06 06:06:54;;;;;;;5.22;4.30;;;11.20;99.90;;;;;;4991917;28;20034;-58
2023/09/06 06:09:21;;;;;;;5.00;4.03;;;11.30;99.90;;;;;;4997928;28;20022;-58
2023/09/06 06:11:47;;;;;;;5.18;4.68;;;11.40;99.90;;;;;;4993723;28;20506;-58
2023/09/06 06:14:13;;;;;;;4.45;4.05;;;11.40;99.90;;;;;;4995837;28;20048;-58
2023/09/06 06:16:39;;;;;;;4.90;4.50;;;11.50;99.90;;;;;;4995697;28;20039;-58
2023/09/06 06:19:04;;;;;;;10.60;4.40;;;11.60;99.90;;;;;;4987350;28;20409;-57
2023/09/06 06:21:31;;;;;;;5.47;4.90;;;11.70;99.90;;;;;;4980894;28;20042;-58
2023/09/06 06:23:57;;;;;;;7.05;4.25;;;11.80;99.90;;;;;;4990287;28;20761;-59
2023/09/06 06:26:23;;;;;;;4.78;4.18;;;11.90;99.90;;;;;;4994653;28;20566;-60
2023/09/06 06:28:49;;;;;;;5.90;4.88;;;12.00;99.90;;;;;;4998813;28;20023;-59
2023/09/06 06:31:15;;;;;;;5.38;4.35;;;12.10;99.90;;;;;;4997862;28;20032;-60
2023/09/06 06:33:42;;;;;;;7.15;4.55;;;12.10;99.90;;;;;;4993964;28;20065;-56
2023/09/06 06:36:08;;;;;;;5.10;4.60;;;12.20;99.90;;;;;;4985052;28;20034;-59
2023/09/06 06:38:33;;;;;;;4.88;4.47;;;12.30;99.90;;;;;;4986711;28;20156;-58
2023/09/06 06:40:59;;;;;;;6.18;4.85;;;12.40;99.90;;;;;;4987352;28;20466;-60
2023/09/06 06:43:25;;;;;;;5.95;5.00;;;12.50;99.90;;;;;;4983265;28;20046;-61
2023/09/06 06:45:53;;;;;;;4.97;4.32;;;12.60;99.90;;;;;;4995779;28;20038;-60
2023/09/06 06:48:19;;;;;;;4.63;4.03;;;12.70;99.90;;;;;;4990752;28;20034;-62
2023/09/06 06:50:45;;;;;;;5.68;4.70;;;12.80;99.90;;;;;;4991720;28;20521;-58
2023/09/06 06:53:11;;;;;;;4.78;4.32;;;12.90;99.90;;;;;;4995313;28;20066;-58
2023/09/06 06:55:37;;;;;;;4.05;3.25;;;13.00;99.90;;;;;;4987347;28;20058;-57
2023/09/06 06:58:07;;;;;;;4.93;4.43;;;13.10;99.90;;;;;;4990939;28;20498;-60
2023/09/06 07:00:34;;;;;;;148.43;39.97;;;13.20;99.90;;;;;;4999131;28;20100;-61
2023/09/06 07:03:00;;;;;;;12.63;3.17;;;13.30;99.90;;;;;;4986619;28;20050;-59
2023/09/06 07:05:26;;;;;;;3.35;3.13;;;13.40;99.90;;;;;;4994149;28;20495;-60
2023/09/06 07:07:52;;;;;;;3.70;3.40;;;13.60;99.90;;;;;;4993901;28;20027;-60
2023/09/06 07:10:17;;;;;;;3.53;3.22;;;13.70;99.90;;;;;;4999916;28;20050;-58
2023/09/06 07:12:43;;;;;;;3.97;3.20;;;13.70;99.90;;;;;;4994947;28;20033;-58
2023/09/06 07:15:10;;;;;;;6.07;4.57;;;13.80;99.90;;;;;;4991300;28;20033;-60
2023/09/06 07:17:36;;;;;;;4.40;3.75;;;13.90;99.90;;;;;;4981003;28;20033;-58
2023/09/06 07:20:05;;;;;;;1999.90;999.90;;;14.10;99.90;;;;;;4978329;28;20033;-61
2023/09/06 07:22:30;;;;;;;31.65;8.40;;;14.10;99.90;;;;;;4984662;28;20038;-59
2023/09/06 07:24:56;;;;;;;3.65;3.35;;;14.20;99.90;;;;;;4985008;28;20034;-59
2023/09/06 07:27:22;;;;;;;3.33;3.13;;;14.30;99.90;;;;;;4985532;28;20027;-58
2023/09/06 07:29:48;;;;;;;3.00;2.70;;;14.40;99.90;;;;;;4985515;28;20532;-57
2023/09/06 07:32:13;;;;;;;4.13;3.78;;;14.40;99.90;;;;;;4992781;28;20030;-55
2023/09/06 07:34:39;;;;;;;3.78;3.50;;;14.50;99.90;;;;;;4988580;28;20041;-58
2023/09/06 07:37:05;;;;;;;3.05;2.85;;;14.60;99.90;;;;;;4988390;28;20528;-56
2023/09/06 07:39:30;;;;;;;2.90;2.70;;;14.80;99.90;;;;;;4992650;28;20112;-59
2023/09/06 07:41:56;;;;;;;2.45;2.35;;;14.80;99.90;;;;;;4989321;28;20151;-58
2023/09/06 07:44:22;;;;;;;2.67;2.47;;;15.00;99.90;;;;;;4983438;28;20041;-57
2023/09/06 07:46:48;;;;;;;2.83;2.63;;;15.10;99.90;;;;;;4980753;28;20070;-57
2023/09/06 07:49:18;;;;;;;1.95;1.85;;;15.20;99.90;;;;;;4984718;28;20056;-58
2023/09/06 07:51:44;;;;;;;2.75;2.55;;;15.40;99.90;;;;;;4985834;28;20328;-59
2023/09/06 07:54:11;;;;;;;2.10;2.00;;;15.60;99.90;;;;;;4980701;28;20106;-60
2023/09/06 07:56:38;;;;;;;2.85;2.47;;;15.70;99.90;;;;;;4984392;28;20039;-59
2023/09/06 07:59:05;;;;;;;2.45;1.95;;;15.80;99.90;;;;;;4982744;28;20026;-57
2023/09/06 08:01:32;;;;;;;2.05;1.85;;;15.90;99.90;;;;;;4982247;28;20158;-61
2023/09/06 08:03:58;;;;;;;1.55;1.45;;;16.00;99.90;;;;;;4994392;28;20093;-59
2023/09/06 08:06:24;;;;;;;1.63;1.52;;;16.20;99.90;;;;;;4996729;28;20030;-59
2023/09/06 08:08:49;;;;;;;2.42;2.22;;;16.20;99.90;;;;;;4993423;28;20467;-59
2023/09/06 08:11:18;;;;;;;1.63;1.52;;;16.30;99.90;;;;;;4987670;28;20043;-59
2023/09/06 08:13:44;;;;;;;1.70;1.60;;;16.40;99.90;;;;;;4993674;28;20058;-59
2023/09/06 08:16:12;;;;;;;1.92;1.50;;;16.50;99.90;;;;;;4978951;28;20108;-59
2023/09/06 08:18:38;;;;;;;1.88;1.77;;;16.70;99.90;;;;;;4992681;28;20827;-59
2023/09/06 08:21:04;;;;;;;2.50;2.22;;;16.80;99.90;;;;;;4992214;28;20084;-61
2023/09/06 08:23:30;;;;;;;3.03;1.98;;;17.00;99.90;;;;;;4989530;28;20149;-60
2023/09/06 08:25:56;;;;;;;2.10;1.90;;;17.10;99.90;;;;;;4978765;28;20061;-60
2023/09/06 08:28:21;;;;;;;2.28;2.08;;;17.30;99.90;;;;;;4989972;28;20054;-59
2023/09/06 08:30:47;;;;;;;2.30;2.10;;;17.40;99.90;;;;;;4989677;28;20146;-59
2023/09/06 08:33:14;;;;;;;1.70;1.60;;;17.60;99.90;;;;;;4990264;28;20026;-60
2023/09/06 08:35:39;;;;;;;2.20;2.00;;;17.70;99.90;;;;;;4990039;28;20074;-60
2023/09/06 08:38:05;;;;;;;1.00;1.00;;;17.90;99.90;;;;;;4990488;28;20441;-58
2023/09/06 08:40:31;;;;;;;1.25;1.25;;;18.10;99.90;;;;;;4988745;28;20165;-58
2023/09/06 08:43:02;;;;;;;1.00;1.00;;;18.20;99.90;;;;;;4994617;28;20117;-59
2023/09/06 08:45:29;;;;;;;1.00;1.00;;;18.30;99.90;;;;;;4995316;28;20037;-59
2023/09/06 08:47:55;;;;;;;0.90;0.90;;;18.50;99.90;;;;;;4983915;28;20023;-58
2023/09/06 08:50:21;;;;;;;207.98;34.67;;;18.70;99.90;;;;;;4987160;28;20121;-59
2023/09/06 08:52:50;;;;;;;1.55;1.45;;;18.90;99.90;;;;;;4984472;28;20034;-60
2023/09/06 08:55:16;;;;;;;2.35;1.63;;;19.10;99.90;;;;;;4993763;28;20033;-60
2023/09/06 08:57:44;;;;;;;2.58;1.95;;;19.20;99.90;;;;;;4995130;28;20054;-60
2023/09/06 09:00:11;;;;;;;2.47;1.88;;;19.40;99.90;;;;;;4999358;28;20018;-60
2023/09/06 09:02:42;;;;;;;1.92;1.58;;;19.60;99.90;;;;;;4989449;28;20034;-60
2023/09/06 09:05:09;;;;;;;2.08;1.40;;;19.80;99.90;;;;;;4982656;28;20027;-60
2023/09/06 09:07:34;;;;;;;72.78;13.10;;;20.00;99.90;;;;;;4981967;28;20565;-59
2023/09/06 09:10:07;;;;;;;1999.90;999.90;;;20.30;99.90;;;;;;4988912;28;20161;-60
2023/09/06 09:12:34;;;;;;;1999.90;999.90;;;20.60;99.90;;;;;;4992368;28;20070;-60
2023/09/06 09:15:00;;;;;;;1999.90;999.90;;;21.10;99.90;;;;;;4992884;28;20032;-60
2023/09/06 09:17:27;;;;;;;1999.90;999.90;;;21.50;99.90;;;;;;4987911;28;20037;-60
2023/09/06 09:19:58;;;;;;;1999.90;999.90;;;21.90;99.90;;;;;;4991311;28;20034;-60
2023/09/06 09:22:28;;;;;;;1999.90;999.90;;;22.20;99.90;;;;;;4989947;28;20031;-60
2023/09/06 09:25:04;;;;;;;1999.90;999.90;;;22.50;99.90;;;;;;4993116;28;20034;-60
2023/09/06 09:27:31;;;;;;;1999.90;999.90;;;22.80;99.90;;;;;;4987591;28;20034;-60
2023/09/06 09:30:00;;;;;;;98.93;94.47;;;23.00;99.90;;;;;;4995999;28;20363;-59
2023/09/06 09:32:25;;;;;;;1999.90;999.90;;;23.10;99.90;;;;;;4988011;28;20035;-59
2023/09/06 09:34:52;;;;;;;1999.90;999.90;;;23.20;99.90;;;;;;4990483;28;20614;-60
2023/09/06 09:37:21;;;;;;;375.55;62.38;;;23.40;99.90;;;;;;4989944;28;20034;-60
2023/09/06 09:39:47;;;;;;;1.85;1.45;;;23.50;99.90;;;;;;4988826;28;20023;-62
2023/09/06 09:42:14;;;;;;;2.42;1.85;;;23.60;99.90;;;;;;4991377;28;20096;-59
2023/09/06 09:44:40;;;;;;;1.52;1.40;;;23.70;99.90;;;;;;4989163;28;20568;-61
2023/09/06 09:47:13;;;;;;;1.50;1.25;;;23.80;99.90;;;;;;4988118;28;20027;-61
2023/09/06 09:49:43;;;;;;;1.88;1.67;;;23.90;99.90;;;;;;4985620;28;20034;-59
2023/09/06 09:52:13;;;;;;;1.70;1.60;;;23.90;99.90;;;;;;4989376;28;20059;-61
2023/09/06 09:54:42;;;;;;;1.65;1.55;;;23.90;99.90;;;;;;4990196;28;20431;-59
2023/09/06 09:57:08;;;;;;;2.08;1.88;;;24.00;99.90;;;;;;4987885;28;20162;-58
2023/09/06 09:59:37;;;;;;;1.50;1.40;;;24.10;99.90;;;;;;4993146;28;20045;-60
2023/09/06 10:02:05;;;;;;;1.55;1.35;;;24.00;99.90;;;;;;4998314;28;20046;-59
2023/09/06 10:04:35;;;;;;;2.03;1.75;;;24.10;99.90;;;;;;4989580;28;20054;-57
2023/09/06 10:07:03;;;;;;;2.15;1.95;;;24.10;99.90;;;;;;4992148;28;20026;-60
2023/09/06 10:09:30;;;;;;;2.22;1.40;;;24.10;99.90;;;;;;5011746;28;20029;-61
2023/09/06 10:11:57;;;;;;;1.60;1.50;;;24.10;99.90;;;;;;4987745;28;20630;-57
2023/09/06 10:14:25;;;;;;;2.25;1.63;;;24.00;99.90;;;;;;4983517;28;20445;-58
2023/09/06 10:16:52;;;;;;;3.38;1.80;;;24.10;99.90;;;;;;4980432;28;20482;-58
2023/09/06 10:19:19;;;;;;;1.00;1.00;;;24.10;99.90;;;;;;4988514;28;20626;-60
2023/09/06 10:21:46;;;;;;;1.42;1.33;;;24.30;99.90;;;;;;4992663;28;20939;-61
2023/09/06 10:24:21;;;;;;;1.77;1.25;;;24.40;99.90;;;;;;4985946;28;20023;-59
2023/09/06 10:26:47;;;;;;;3.63;1.15;;;24.50;99.90;;;;;;4989104;28;20112;-58
2023/09/06 10:29:19;;;;;;;1.15;1.05;;;24.50;99.90;;;;;;4989106;28;20023;-59
2023/09/06 10:31:51;;;;;;;1.10;1.00;;;24.50;99.90;;;;;;4987527;28;20035;-59
2023/09/06 10:34:17;;;;;;;1.30;1.20;;;24.60;99.90;;;;;;4998971;28;20614;-60
2023/09/06 10:36:57;;;;;;;580.28;262.83;;;24.70;99.90;;;;;;4995486;28;20117;-61
2023/09/06 10:39:28;;;;;;;1.27;1.17;;;24.80;99.90;;;;;;4986246;28;20065;-59
2023/09/06 10:42:09;;;;;;;;;;;24.90;99.90;;;;;;4989917;28;20034;-59
2023/09/06 10:45:01;;;;;;;47.15;5.03;;;24.90;99.90;;;;;;4988329;28;20273;-58
2023/09/06 10:47:36;;;;;;;1.70;1.20;;;25.00;99.90;;;;;;4987734;28;20042;-58
2023/09/06 10:50:11;;;;;;;1.50;0.80;;;25.10;99.90;;;;;;4988794;28;20473;-60
2023/09/06 10:52:58;;;;;;;0.95;0.80;;;25.10;99.90;;;;;;4985426;28;20030;-59
2023/09/06 10:55:26;;;;;;;3.53;1.10;;;25.10;99.90;;;;;;4982040;28;20050;-57
2023/09/06 10:57:57;;;;;;;0.98;0.90;;;25.10;99.90;;;;;;4989031;28;20033;-59
2023/09/06 11:00:26;;;;;;;0.93;0.93;;;25.20;99.90;;;;;;4996993;28;20046;-59
2023/09/06 11:03:30;;;;;;;0.75;0.75;;;25.20;99.90;;;;;;5001291;28;20441;-61
2023/09/06 11:05:56;;;;;;;1.10;1.00;;;25.20;99.90;;;;;;4982188;28;20042;-60
2023/09/06 11:08:25;;;;;;;1.33;1.13;;;25.20;99.90;;;;;;4983904;28;20032;-61
2023/09/06 11:10:53;;;;;;;4.15;1.20;;;25.40;99.90;;;;;;4982612;28;20034;-59
2023/09/06 11:13:19;;;;;;;7.53;1.17;;;25.40;99.90;;;;;;4986306;28;20552;-59
2023/09/06 11:15:48;;;;;;;2.45;1.02;;;25.40;99.90;;;;;;4983582;28;20077;-60
2023/09/06 11:18:14;;;;;;;0.98;0.98;;;25.50;96.70;;;;;;4989254;28;20030;-60
2023/09/06 11:20:49;;;;;;;1.52;1.33;;;25.50;99.90;;;;;;4992250;28;20037;-60
2023/09/06 11:23:16;;;;;;;0.77;0.77;;;25.60;99.90;;;;;;4985804;28;20414;-60
2023/09/06 11:25:43;;;;;;;0.80;0.80;;;25.80;99.90;;;;;;4990631;28;20046;-61
2023/09/06 11:28:19;;;;;;;6.07;2.10;;;25.90;99.60;;;;;;4991738;28;20302;-61
2023/09/06 11:30:47;;;;;;;2.88;1.40;;;25.90;99.90;;;;;;4988328;28;20026;-60
2023/09/06 11:33:16;;;;;;;5.15;1.60;;;26.00;99.00;;;;;;4991730;28;20025;-60
2023/09/06 11:35:56;;;;;;;2.53;1.60;;;26.00;98.90;;;;;;4993736;28;20034;-60
2023/09/06 11:38:28;;;;;;;2.03;1.83;;;26.20;92.50;;;;;;4987226;28;20537;-60
2023/09/06 11:41:04;;;;;;;1.77;1.67;;;26.20;92.90;;;;;;4990899;28;20056;-61
2023/09/06 11:43:31;;;;;;;1.70;1.60;;;26.30;95.40;;;;;;4987214;28;20049;-61
2023/09/06 11:46:03;;;;;;;3.35;1.90;;;26.30;91.70;;;;;;4988030;28;20058;-61
2023/09/06 11:48:30;;;;;;;3.30;1.98;;;26.40;91.60;;;;;;4990642;28;20045;-60
2023/09/06 11:51:29;;;;;;;2.00;1.80;;;26.40;93.40;;;;;;4993518;28;20042;-61
2023/09/06 11:54:00;;;;;;;2.78;1.83;;;26.50;91.10;;;;;;4993077;28;20038;-60
2023/09/06 11:56:33;;;;;;;1.92;1.45;;;26.70;89.70;;;;;;4987983;28;20046;-59
2023/09/06 11:58:59;;;;;;;1.55;1.38;;;26.80;90.80;;;;;;4983466;28;20129;-61
2023/09/06 12:01:26;;;;;;;1.75;1.65;;;26.90;82.10;;;;;;4989940;28;20027;-60
2023/09/06 12:04:01;;;;;;;2.10;1.70;;;27.00;85.10;;;;;;4987297;28;20356;-61
2023/09/06 12:06:30;;;;;;;2.97;1.70;;;27.10;82.40;;;;;;4990563;28;20508;-60
2023/09/06 12:08:55;;;;;;;1.75;1.40;;;27.20;83.50;;;;;;4982528;28;20014;-60
2023/09/06 12:11:23;;;;;;;264.42;23.85;;;27.30;84.40;;;;;;4987716;28;20026;-61
2023/09/06 12:13:49;;;;;;;298.05;28.95;;;27.30;89.40;;;;;;4995898;28;20045;-60
2023/09/06 12:16:18;;;;;;;1.13;0.85;;;27.40;84.80;;;;;;5003670;28;20041;-60
2023/09/06 12:18:45;;;;;;;141.23;9.20;;;27.50;82.80;;;;;;4993048;28;20061;-60
2023/09/06 12:21:11;;;;;;;1.60;1.40;;;27.50;81.70;;;;;;4983237;28;20026;-58
2023/09/06 12:23:37;;;;;;;2.00;1.80;;;27.50;80.70;;;;;;4990396;28;20679;-60
2023/09/06 12:26:03;;;;;;;2.33;1.73;;;27.50;74.40;;;;;;4991013;28;20034;-60
2023/09/06 12:28:31;;;;;;;4.03;1.60;;;27.50;81.30;;;;;;4988770;28;20212;-59
2023/09/06 12:31:00;;;;;;;2.67;1.70;;;27.50;72.70;;;;;;4982254;28;20027;-58
2023/09/06 12:33:28;;;;;;;1.50;1.20;;;27.50;76.90;;;;;;4981425;28;20035;-60
2023/09/06 12:36:05;;;;;;;1.30;1.20;;;27.50;73.50;;;;;;4985811;28;20033;-59
2023/09/06 12:38:32;;;;;;;2.30;1.15;;;27.50;76.30;;;;;;4992342;28;20077;-59
2023/09/06 12:40:59;;;;;;;1.77;1.25;;;27.50;79.60;;;;;;4992383;28;20513;-60
2023/09/06 12:43:26;;;;;;;1.98;1.40;;;27.50;78.10;;;;;;4977625;28;20076;-57
2023/09/06 12:45:57;;;;;;;1.50;1.30;;;27.50;77.10;;;;;;4978202;28;20049;-60
2023/09/06 12:48:23;;;;;;;;;;;27.60;79.70;;;;;;4990523;28;20116;-57